Latest Weather Observations for Point Fawcett

IDD60901

Issued at 3:51 pm CST Monday 25 October 2021 (issued every 10 minutes, with the page automatically refreshed every 10 minutes)

About weather observations | Map of Darwin area stations | Latest observations for Darwin area | Other Formats
Station Details ID: 200731 Name: POINT FAWCETT Lat: -11.76 Lon: 130.03 Height: 6.5 m
Data from the previous 72 hours. | See also: Recent months at Point Fawcett
Date/Time
CST
Temp
°C
App
Temp
°C
Dew
Point
°C
Rel
Hum
%
Delta-T
°C
Wind Press
QNH
hPa
Press
MSL
hPa
Rain since
9am
mm
Dir  Spd
km/h
Gust
km/h
Spd
kts
Gust
kts
25/03:30pm 31.7 35.6 24.3 65 5.2 W 11 15 6 8 1008.4 1008.3 2.0
25/03:00pm 31.6 36.0 24.5 66 5.0 W 9 13 5 7 1008.5 1008.4 2.0
25/02:30pm 31.8 35.9 23.9 63 5.5 WSW 9 13 5 7 1008.9 1008.8 2.0
25/02:00pm 31.4 35.7 24.3 66 5.0 SW 9 15 5 8 1009.5 1009.4 2.0
25/01:30pm 30.8 36.2 25.4 73 3.8 SW 7 11 4 6 1010.0 1009.9 1.8
25/01:00pm 29.1 34.9 26.1 84 2.1 WNW 7 9 4 5 1010.5 1010.4 1.8
25/12:30pm 28.2 31.1 24.4 80 2.6 NNW 17 28 9 15 1011.0 1010.9 0.0
25/12:00pm 30.7 34.1 24.1 68 4.6 SW 13 19 7 10 1011.2 1011.2 0.0
25/11:30am 31.8 35.9 25.2 68 4.7 SSW 13 20 7 11 1011.5 1011.5 0.0
25/11:00am 30.4 33.7 23.8 68 4.6 SW 13 19 7 10 1011.7 1011.7 0.0
25/10:30am 30.5 34.9 24.4 70 4.3 SW 9 15 5 8 1012.2 1012.2 0.0
25/10:00am 30.8 34.9 24.0 67 4.7 SSW 9 17 5 9 1012.4 1012.4 0.0
25/09:30am 32.0 36.4 23.5 60 5.9 S 6 11 3 6 1012.3 1012.3 0.0
25/09:00am 31.5 36.4 23.6 63 5.5 WSW 4 9 2 5 1012.0 1012.0 2.4
25/08:30am 30.7 36.2 24.6 70 4.3 W 4 11 2 6 1011.8 1011.8 2.4
25/08:00am 29.7 35.3 24.8 75 3.4 W 4 7 2 4 1011.7 1011.7 2.4
25/07:30am 28.2 35.4 26.2 89 1.4 CALM 0 0 0 0 1011.5 1011.5 2.4
25/07:00am 25.9 31.5 25.4 97 0.3 W 6 7 3 4 1011.1 1011.0 2.4
25/06:30am 25.1 30.0 24.4 96 0.5 W 6 7 3 4 1011.0 1010.9 2.4
25/06:00am 25.1 29.9 24.4 96 0.5 W 7 7 4 4 1010.6 1010.5 2.4
25/05:30am 24.9 29.7 24.2 96 0.5 W 6 7 3 4 1010.4 1010.3 2.4
25/05:00am 24.9 29.2 23.7 93 0.8 WNW 7 7 4 4 1010.1 1010.0 2.4
25/04:30am 25.1 29.6 23.9 93 0.8 WNW 7 7 4 4 1009.8 1009.7 2.4
25/04:00am 25.5 30.3 24.1 92 1.0 WNW 6 7 3 4 1009.7 1009.6 2.4
25/03:30am 26.0 30.9 24.4 91 1.1 WNW 6 7 3 4 1009.8 1009.7 2.4
25/03:00am 26.1 30.8 24.3 90 1.2 WNW 7 9 4 5 1009.7 1009.6 2.4
25/02:30am 26.5 31.1 24.2 87 1.6 WNW 7 9 4 5 1009.8 1009.7 2.4
25/02:00am 27.1 31.9 24.2 84 2.0 NW 6 9 3 5 1009.8 1009.7 2.4
25/01:30am 28.8 33.2 24.4 77 3.1 NW 9 13 5 7 1010.0 1009.9 2.4
25/01:00am 28.8 32.9 24.6 78 2.9 NW 11 15 6 8 1010.2 1010.1 2.4
25/12:30am 28.6 33.2 24.8 80 2.7 NW 9 13 5 7 1010.3 1010.2 2.4
25/12:00am 28.4 32.9 24.6 80 2.6 NW 9 13 5 7 1010.4 1010.3 2.4
 
Date/Time
CST
Temp
°C
App
Temp
°C
Dew
Point
°C
Rel
Hum
%
Delta-T
°C
Wind Press
QNH
hPa
Press
MSL
hPa
Rain since
9am
mm
Dir  Spd
km/h
Gust
km/h
Spd
kts
Gust
kts
24/11:30pm 28.4 32.5 24.6 80 2.6 NNW 11 15 6 8 1010.4 1010.3 2.4
24/11:00pm 28.5 32.7 24.7 80 2.7 NW 11 15 6 8 1010.5 1010.4 2.4
24/10:30pm 28.5 32.7 24.7 80 2.7 NW 11 15 6 8 1010.7 1010.6 2.4
24/10:00pm 28.5 32.6 24.5 79 2.8 NW 11 15 6 8 1010.7 1010.6 2.4
24/09:30pm 28.5 32.2 24.5 79 2.8 NNW 13 17 7 9 1010.8 1010.7 2.4
24/09:00pm 27.7 31.4 24.5 83 2.2 NNW 13 17 7 9 1010.8 1010.7 2.4
24/08:30pm 24.8 29.8 23.2 91 1.1 NNE 2 9 1 5 1010.7 1010.6 2.4
24/08:00pm 24.9 30.2 23.0 89 1.3 CALM 0 0 0 0 1010.4 1010.3 2.4
24/07:30pm 25.6 29.5 22.5 83 2.1 NNE 6 9 3 5 1010.2 1010.1 2.4
24/07:00pm 26.3 30.6 22.6 80 2.5 NNE 4 7 2 4 1010.2 1010.1 2.4
24/06:30pm 27.2 31.1 21.9 73 3.6 NW 4 11 2 6 1010.1 1010.0 2.4
24/06:00pm 27.3 30.3 22.7 76 3.1 N 11 17 6 9 1010.1 1010.0 2.4
24/05:30pm 24.5 27.0 22.4 88 1.4 ENE 13 20 7 11 1010.3 1010.2 2.4
24/05:05pm 26.1 26.9 20.7 72 3.5 NNE 17 50 9 27 1010.4 1010.3 2.0
24/05:00pm 31.7 35.8 24.0 63 5.4 NW 9 28 5 15 1010.3 1010.2 2.0
24/04:30pm 31.2 34.6 24.1 66 5.0 W 13 17 7 9 1009.8 1009.7 2.0
24/04:00pm 31.7 35.9 24.8 67 4.9 W 11 17 6 9 1009.7 1009.6 2.0
24/03:30pm 31.8 36.3 25.2 68 4.7 W 11 17 6 9 1009.5 1009.4 2.0
24/03:00pm 30.6 36.6 26.3 78 3.1 WNW 7 11 4 6 1009.9 1009.8 2.0
24/02:30pm 28.0 32.5 23.6 77 3.0 WNW 6 13 3 7 1010.1 1010.0 1.8
24/02:00pm 32.6 36.3 24.6 62 5.6 WNW 13 17 7 9 1010.6 1010.5 0.0
24/01:30pm 32.2 36.4 24.8 65 5.2 W 11 17 6 9 1010.8 1010.7 0.0
24/01:00pm 33.0 37.4 25.0 63 5.7 W 11 17 6 9 1011.1 1011.0 0.0
24/12:30pm 33.4 37.1 25.1 61 5.9 NW 15 19 8 10 1011.4 1011.4 0.0
24/12:00pm 33.8 37.2 25.2 60 6.1 NW 17 22 9 12 1011.6 1011.6 0.0
24/11:30am 33.7 37.7 25.1 60 6.1 NNW 13 17 7 9 1011.9 1011.9 0.0
24/11:00am 33.3 37.2 24.2 59 6.4 NNW 11 15 6 8 1012.1 1012.1 0.0
24/10:30am 33.3 37.9 24.7 60 6.1 NNW 9 13 5 7 1012.1 1012.1 0.0
24/10:00am 32.2 36.9 24.3 63 5.5 NNW 7 11 4 6 1012.2 1012.2 0.0
24/09:30am 32.2 36.3 24.0 62 5.7 NNW 9 15 5 8 1012.2 1012.2 0.0
24/09:00am 32.1 36.3 24.7 65 5.2 N 11 17 6 9 1011.8 1011.8 0.0
24/08:30am 31.2 34.8 24.3 66 4.8 NNE 13 20 7 11 1011.1 1011.0 0.0
24/08:00am 30.4 34.4 25.0 73 3.8 NNE 13 20 7 11 1010.8 1010.7 0.0
24/07:30am 29.0 32.9 25.4 81 2.5 N 15 22 8 12 1010.2 1010.1 0.0
24/07:00am 25.9 31.2 25.2 96 0.5 ESE 7 11 4 6 1010.3 1010.2 0.0
24/06:30am 24.0 28.7 22.6 92 0.9 SE 2 9 1 5 1010.5 1010.4 0.0
24/06:00am 24.8 30.1 23.0 90 1.2 CALM 0 0 0 0 1010.7 1010.6 0.0
24/05:30am 25.8 30.3 24.0 90 1.2 SSE 7 15 4 8 1011.1 1011.0 0.0
24/05:00am 25.4 30.1 24.9 97 0.3 SW 9 17 5 9 1011.2 1011.2 0.0
24/04:30am 24.1 28.4 22.7 92 0.9 W 4 6 2 3 1011.1 1011.0 0.0
24/04:00am 24.3 28.3 22.7 91 1.1 W 6 9 3 5 1011.3 1011.3 0.0
24/03:30am 24.6 28.4 22.8 90 1.2 W 7 9 4 5 1010.8 1010.7 0.0
24/03:00am 25.3 29.5 23.2 88 1.4 W 6 6 3 3 1010.9 1010.8 0.0
24/02:30am 25.0 29.1 23.2 90 1.2 WNW 7 9 4 5 1011.3 1011.3 0.0
24/02:00am 25.3 30.1 22.8 86 1.7 WNW 2 7 1 4 1010.7 1010.6 0.0
24/01:30am 26.8 31.1 22.6 78 2.8 WNW 4 9 2 5 1010.8 1010.7 0.0
24/01:00am 28.5 32.6 23.9 76 3.2 WNW 9 13 5 7 1010.9 1010.8 0.0
24/12:30am 28.7 32.0 23.8 75 3.4 NW 13 19 7 10 1011.3 1011.3 0.0
24/12:00am 28.8 32.1 23.9 75 3.4 NW 13 19 7 10 1011.7 1011.7 0.0
 
Date/Time
CST
Temp
°C
App
Temp
°C
Dew
Point
°C
Rel
Hum
%
Delta-T
°C
Wind Press
QNH
hPa
Press
MSL
hPa
Rain since
9am
mm
Dir  Spd
km/h
Gust
km/h
Spd
kts
Gust
kts
23/11:30pm 28.6 32.2 24.4 78 2.9 WNW 13 17 7 9 1012.3 1012.3 0.0
23/11:00pm 25.2 29.4 22.5 85 1.8 NE 4 7 2 4 1012.6 1012.6 0.0
23/10:30pm 25.4 30.4 22.5 84 2.0 CALM 0 0 0 0 1012.3 1012.3 0.0
23/10:00pm 25.1 28.6 22.2 84 1.9 NE 7 9 4 5 1012.2 1012.2 0.0
23/09:30pm 25.3 28.9 22.0 82 2.2 NE 6 9 3 5 1011.9 1011.9 0.0
23/09:00pm 25.9 30.4 22.2 80 2.5 NE 2 7 1 4 1011.4 1011.4 0.0
23/08:30pm 26.4 31.4 22.5 79 2.6 CALM 0 0 0 0 1011.5 1011.5 0.0
23/08:00pm 27.3 31.2 22.9 77 3.0 NE 7 9 4 5 1011.3 1011.3 0.0
23/07:30pm 28.3 32.6 23.7 76 3.2 NNE 7 11 4 6 1010.5 1010.4 0.0
23/07:00pm 29.8 32.9 24.2 72 3.9 NNW 15 20 8 11 1010.1 1010.0 0.0
23/06:30pm 30.6 34.6 23.8 67 4.7 NW 9 11 5 6 1010.3 1010.2 0.0
23/06:00pm 30.9 34.5 23.8 66 4.9 NW 11 15 6 8 1009.8 1009.7 0.0
23/05:30pm 31.3 34.0 24.2 66 5.0 WNW 17 20 9 11 1009.3 1009.2 0.0
23/05:00pm 31.9 34.5 24.0 63 5.5 WNW 17 20 9 11 1009.4 1009.3 0.0
23/04:30pm 32.2 34.8 24.0 62 5.7 WNW 17 19 9 10 1009.5 1009.4 0.0
23/04:00pm 32.1 36.0 24.9 65 5.1 W 13 19 7 10 1009.7 1009.6 0.0
23/03:30pm 32.8 36.3 24.8 62 5.6 WNW 15 19 8 10 1009.9 1009.8 0.0
23/03:00pm 33.2 36.4 24.4 60 6.2 WNW 15 19 8 10 1009.9 1009.8 0.0
23/02:30pm 33.4 36.4 24.6 60 6.2 WNW 17 20 9 11 1010.2 1010.1 0.0
23/02:00pm 34.0 37.3 25.1 59 6.3 NW 17 20 9 11 1010.6 1010.5 0.0
23/01:30pm 33.9 37.5 25.0 59 6.3 NW 15 20 8 11 1010.9 1010.8 0.0
23/01:00pm 33.6 36.8 25.0 60 6.1 NW 17 20 9 11 1011.2 1011.2 0.0
23/12:30pm 34.4 37.9 25.5 60 6.3 NW 17 20 9 11 1011.9 1011.9 0.0
23/12:00pm 34.0 37.9 25.4 61 6.1 NW 15 19 8 10 1012.2 1012.2 0.0
23/11:30am 33.6 37.5 24.8 60 6.2 NW 13 20 7 11 1012.4 1012.4 0.0
23/11:00am 34.0 38.0 25.1 59 6.3 NNW 13 17 7 9 1012.8 1012.8 0.0
23/10:30am 33.0 37.2 24.7 61 5.8 NW 11 15 6 8 1013.0 1013.0 0.0
23/10:00am 32.3 36.6 24.9 65 5.2 NNW 11 15 6 8 1012.9 1012.9 0.0
23/09:30am 32.6 37.2 25.4 66 5.1 NNW 11 15 6 8 1012.9 1012.9 0.0
23/09:00am 31.7 35.4 24.6 66 5.0 NNW 13 17 7 9 1012.6 1012.6 0.0
23/08:30am 31.2 34.9 24.6 68 4.6 NNW 13 17 7 9 1012.4 1012.4 0.0
23/08:00am 30.3 34.5 24.7 72 3.9 NNW 11 17 6 9 1012.1 1012.1 0.0
23/07:30am 29.9 34.4 25.2 76 3.3 N 11 17 6 9 1011.7 1011.7 0.0
23/07:00am 28.9 32.7 24.7 78 2.9 NNW 13 17 7 9 1011.4 1011.4 0.0
23/06:30am 28.5 32.3 24.7 80 2.7 N 13 20 7 11 1011.0 1010.9 0.0
23/06:00am 28.5 32.2 24.5 79 2.8 NNW 13 19 7 10 1010.8 1010.7 0.0
23/05:30am 28.6 32.1 24.8 80 2.7 NNW 15 20 8 11 1010.6 1010.5 0.0
23/05:00am 28.6 32.5 24.8 80 2.7 NNW 13 17 7 9 1010.3 1010.2 0.0
23/04:30am 28.7 32.6 24.9 80 2.7 NW 13 17 7 9 1010.3 1010.2 0.0
23/04:00am 28.8 32.7 24.8 79 2.8 NW 13 17 7 9 1010.1 1010.0 0.0
23/03:30am 28.8 32.7 24.8 79 2.8 NNW 13 20 7 11 1010.0 1009.9 0.0
23/03:00am 28.8 32.7 24.8 79 2.8 NW 13 19 7 10 1010.2 1010.1 0.0
23/02:30am 28.7 32.5 24.7 79 2.8 NW 13 17 7 9 1010.3 1010.2 0.0
23/02:00am 28.8 32.3 24.8 79 2.8 NNW 15 19 8 10 1010.4 1010.3 0.0
23/01:30am 28.9 32.6 25.1 80 2.7 NNW 15 20 8 11 1010.5 1010.4 0.0
23/01:00am 29.0 32.6 25.0 79 2.8 NNW 15 20 8 11 1010.5 1010.4 0.0
23/12:30am 29.2 32.9 25.2 79 2.8 NW 15 20 8 11 1011.0 1010.9 0.0
23/12:00am 29.1 32.8 25.1 79 2.8 NW 15 19 8 10 1011.2 1011.2 0.0
 
Date/Time
CST
Temp
°C
App
Temp
°C
Dew
Point
°C
Rel
Hum
%
Delta-T
°C
Wind Press
QNH
hPa
Press
MSL
hPa
Rain since
9am
mm
Dir  Spd
km/h
Gust
km/h
Spd
kts
Gust
kts
22/11:30pm 29.1 33.3 25.3 80 2.7 NW 13 17 7 9 1011.3 1011.3 0.0
22/11:00pm 29.2 33.3 25.2 79 2.8 NNW 13 17 7 9 1011.4 1011.4 0.0
22/10:30pm 29.3 33.7 25.1 78 3.0 NW 11 17 6 9 1011.7 1011.7 0.0
22/10:00pm 29.4 32.9 24.9 77 3.2 NNW 15 20 8 11 1011.4 1011.4 0.0
22/09:30pm 29.5 33.1 25.0 77 3.2 NW 15 19 8 10 1011.3 1011.3 0.0
22/09:00pm 29.6 33.0 24.7 75 3.4 NW 15 19 8 10 1011.1 1011.0 0.0
22/08:30pm 29.7 32.5 25.0 76 3.3 NW 19 22 10 12 1010.6 1010.5 0.0
22/08:00pm 29.6 32.3 24.7 75 3.4 NW 19 24 10 13 1010.3 1010.2 0.0
22/07:30pm 29.7 33.1 25.2 77 3.2 NW 17 20 9 11 1009.5 1009.4 0.0
22/07:00pm 29.9 32.9 25.2 76 3.3 NW 19 24 10 13 1008.9 1008.8 0.0
22/06:30pm 30.3 33.2 25.1 73 3.7 NNW 19 24 10 13 1008.3 1008.2 0.0
22/06:00pm 31.3 34.3 24.7 68 4.6 NW 17 22 9 12 1008.3 1008.2 0.0
22/05:30pm 31.8 35.0 24.4 65 5.2 NW 15 20 8 11 1008.5 1008.4 0.0
22/05:00pm 31.9 35.5 25.0 67 4.9 WNW 15 17 8 9 1008.5 1008.4 0.0
22/04:30pm 32.1 36.0 25.4 67 4.8 W 15 17 8 9 1008.7 1008.6 0.0
22/04:00pm 32.1 36.0 24.9 65 5.1 W 13 17 7 9 1008.9 1008.8 0.0

Latest Capital City Observations: Canberra | Sydney | Melbourne | Brisbane | Adelaide | Perth | Hobart | Darwin

Other formats

Comma delimited format used in spreadsheet applications
http://www.bom.gov.au/fwo/IDD60901/IDD60901.94122.axf

JavaScript Object Notation format (JSON) in row-major order
http://www.bom.gov.au/fwo/IDD60901/IDD60901.94122.json

Data quality

Most of these data are generated automatically and are frequently updated. Quality checks on data are not normally performed. It is possible for incorrect values to appear. Refer to information at About Latest Weather Observations and please check the disclaimer before using these data.